Terminal Aerodrome Forecast
Issued by NWS

Home | Current Version | Previous Version | Text Only | Print | Product List | Glossary On
Versions: 1 2 3 4 5 6 7 8 9 10 11 12 13 14 15 16 17 18 19
000
FTUS42 KTAE 221123 CCA
TAFDHN
TAF COR
KDHN 221123Z 2212/2312 05006KT 6SM -RA BR BKN004 OVC050
     FM221500 07008KT P6SM -SHRA OVC015
     FM221800 08009KT P6SM VCSH SCT025 BKN040
     FM230000 04004KT P6SM BKN010
     FM230400 05005KT 6SM BR OVC005
     FM230700 06005KT 4SM BR OVC003=

USA.gov is the U.S. government's official web portal to all federal, state and local government web resources and services.